首页
METAR-TAF:

METAR-TAF

机场 :

兰伯特-圣路易斯国际机场

圣路易斯, 密蘇里州, 美国

纬度: 38-45-09N, 经度: 090-22-25W, 海拔: 184米

当前天气观测

该预报发布于18分钟前的08:51 UTC
风速4节,风向东转东南
温度 17°C
湿度 68%
气压 1024 hPa
能見度: 16.1公里
少量云层高于12000英尺

METAR: KSTL 010851Z 12004KT 10SM FEW120 17/11 A3023 RMK AO2 SLP226 T01720106 50000

时间: 04:09 (09:09 UTC)

预报

该预报发布于3小时和49分钟前的05:20 UTC
预报有效从01日的 06点(UTC)到 02日的 12点(UTC)
风速7节,风向东南
能見度: 10公里
少量云层高于15000英尺
从 01日的 1800点(UTC)
风速8节,风向南转南东
能見度: 10公里
散云层高于15000英尺

TAF: KSTL 010520Z 0106/0212 13007KT P6SM FEW150 FM011800 16008KT P6SM SCT150

超过4000个机场的气象观测和天气预报(METAR&TAF报告)。

可查询的气象台以黄色和红色小点在地图上表示。

将鼠标移到小点上方,可查看气象台名称。

然后点击查看天气观测和预报。

如需切换地图:点击带黑十字的绿色按钮放大地图;点击带横线的绿色按钮缩小地图;或者点击绿色箭头查看邻近地区的地图。


METAR-TAF: